sensor_id;sensor_type;location;lat;lon;timestamp;P1;durP1;ratioP1;P2;durP2;ratioP2
26860;SDS011;37676;46.956;7.430;2022-08-19T00:01:15;3.30;;;1.83;;
26860;SDS011;37676;46.956;7.430;2022-08-19T00:03:41;3.15;;;1.67;;
26860;SDS011;37676;46.956;7.430;2022-08-19T00:06:06;3.17;;;2.03;;
26860;SDS011;37676;46.956;7.430;2022-08-19T00:08:31;4.32;;;2.67;;
26860;SDS011;37676;46.956;7.430;2022-08-19T00:10:57;4.03;;;2.85;;
26860;SDS011;37676;46.956;7.430;2022-08-19T00:13:22;5.25;;;3.28;;
26860;SDS011;37676;46.956;7.430;2022-08-19T00:15:47;4.67;;;2.60;;
26860;SDS011;37676;46.956;7.430;2022-08-19T00:18:13;4.28;;;2.45;;
26860;SDS011;37676;46.956;7.430;2022-08-19T00:20:38;3.72;;;2.35;;
26860;SDS011;37676;46.956;7.430;2022-08-19T00:23:05;2.92;;;1.80;;
26860;SDS011;37676;46.956;7.430;2022-08-19T00:25:31;2.50;;;1.40;;
26860;SDS011;37676;46.956;7.430;2022-08-19T00:27:56;2.78;;;1.38;;
26860;SDS011;37676;46.956;7.430;2022-08-19T00:30:23;2.55;;;1.50;;
26860;SDS011;37676;46.956;7.430;2022-08-19T00:32:49;2.67;;;1.60;;
26860;SDS011;37676;46.956;7.430;2022-08-19T00:35:14;3.10;;;1.70;;
26860;SDS011;37676;46.956;7.430;2022-08-19T00:37:40;2.88;;;1.80;;
26860;SDS011;37676;46.956;7.430;2022-08-19T00:40:08;2.35;;;1.42;;
26860;SDS011;37676;46.956;7.430;2022-08-19T00:42:35;2.58;;;1.55;;
26860;SDS011;37676;46.956;7.430;2022-08-19T00:45:01;2.28;;;1.35;;
26860;SDS011;37676;46.956;7.430;2022-08-19T00:47:27;2.35;;;1.38;;
26860;SDS011;37676;46.956;7.430;2022-08-19T00:49:54;2.83;;;1.60;;
26860;SDS011;37676;46.956;7.430;2022-08-19T00:52:29;2.22;;;1.40;;
26860;SDS011;37676;46.956;7.430;2022-08-19T00:54:58;2.63;;;1.45;;
26860;SDS011;37676;46.956;7.430;2022-08-19T00:57:37;3.20;;;1.70;;
26860;SDS011;37676;46.956;7.430;2022-08-19T01:00:06;2.50;;;1.30;;
26860;SDS011;37676;46.956;7.430;2022-08-19T01:02:36;3.00;;;1.58;;
26860;SDS011;37676;46.956;7.430;2022-08-19T01:05:03;2.47;;;1.33;;
26860;SDS011;37676;46.956;7.430;2022-08-19T01:07:33;2.50;;;1.20;;
26860;SDS011;37676;46.956;7.430;2022-08-19T01:10:00;2.58;;;1.60;;
26860;SDS011;37676;46.956;7.430;2022-08-19T01:12:26;2.88;;;1.80;;
26860;SDS011;37676;46.956;7.430;2022-08-19T01:14:51;2.50;;;1.30;;
26860;SDS011;37676;46.956;7.430;2022-08-19T01:17:17;2.40;;;1.25;;
26860;SDS011;37676;46.956;7.430;2022-08-19T01:19:44;2.28;;;1.38;;
26860;SDS011;37676;46.956;7.430;2022-08-19T01:22:17;2.47;;;1.17;;
26860;SDS011;37676;46.956;7.430;2022-08-19T01:24:46;2.58;;;1.33;;
26860;SDS011;37676;46.956;7.430;2022-08-19T01:27:12;2.50;;;1.42;;
26860;SDS011;37676;46.956;7.430;2022-08-19T01:29:39;3.33;;;1.70;;
26860;SDS011;37676;46.956;7.430;2022-08-19T01:32:05;2.47;;;1.38;;
26860;SDS011;37676;46.956;7.430;2022-08-19T01:34:32;2.22;;;1.30;;
26860;SDS011;37676;46.956;7.430;2022-08-19T01:36:59;3.40;;;1.50;;
26860;SDS011;37676;46.956;7.430;2022-08-19T01:39:26;2.60;;;1.35;;
26860;SDS011;37676;46.956;7.430;2022-08-19T01:41:51;2.10;;;1.13;;
26860;SDS011;37676;46.956;7.430;2022-08-19T01:44:20;5.38;;;3.53;;
26860;SDS011;37676;46.956;7.430;2022-08-19T01:46:48;3.30;;;2.08;;
26860;SDS011;37676;46.956;7.430;2022-08-19T01:49:15;3.33;;;1.85;;
26860;SDS011;37676;46.956;7.430;2022-08-19T01:51:46;2.22;;;1.10;;
26860;SDS011;37676;46.956;7.430;2022-08-19T01:54:12;2.00;;;1.10;;
26860;SDS011;37676;46.956;7.430;2022-08-19T01:56:40;2.42;;;1.17;;
26860;SDS011;37676;46.956;7.430;2022-08-19T01:59:09;2.58;;;1.45;;
26860;SDS011;37676;46.956;7.430;2022-08-19T02:01:39;2.47;;;1.43;;
26860;SDS011;37676;46.956;7.430;2022-08-19T02:04:05;3.03;;;1.85;;
26860;SDS011;37676;46.956;7.430;2022-08-19T02:06:31;2.75;;;1.40;;
26860;SDS011;37676;46.956;7.430;2022-08-19T02:08:58;3.00;;;1.77;;
26860;SDS011;37676;46.956;7.430;2022-08-19T02:11:27;2.95;;;1.92;;
26860;SDS011;37676;46.956;7.430;2022-08-19T02:13:56;3.67;;;2.22;;
26860;SDS011;37676;46.956;7.430;2022-08-19T02:16:22;4.55;;;2.33;;
26860;SDS011;37676;46.956;7.430;2022-08-19T02:18:48;3.22;;;2.10;;
26860;SDS011;37676;46.956;7.430;2022-08-19T02:21:15;3.60;;;2.00;;
26860;SDS011;37676;46.956;7.430;2022-08-19T02:23:44;3.42;;;2.03;;
26860;SDS011;37676;46.956;7.430;2022-08-19T02:26:11;3.22;;;1.60;;
26860;SDS011;37676;46.956;7.430;2022-08-19T02:28:37;3.42;;;1.90;;
26860;SDS011;37676;46.956;7.430;2022-08-19T02:31:08;2.83;;;1.70;;
26860;SDS011;37676;46.956;7.430;2022-08-19T02:33:35;2.72;;;1.48;;
26860;SDS011;37676;46.956;7.430;2022-08-19T02:36:02;3.08;;;1.88;;
26860;SDS011;37676;46.956;7.430;2022-08-19T02:38:29;2.67;;;1.50;;
26860;SDS011;37676;46.956;7.430;2022-08-19T02:40:59;2.92;;;1.65;;
26860;SDS011;37676;46.956;7.430;2022-08-19T02:43:27;3.38;;;1.95;;
26860;SDS011;37676;46.956;7.430;2022-08-19T02:45:54;2.92;;;1.58;;
26860;SDS011;37676;46.956;7.430;2022-08-19T02:48:20;3.70;;;1.90;;
26860;SDS011;37676;46.956;7.430;2022-08-19T02:50:48;3.03;;;1.70;;
26860;SDS011;37676;46.956;7.430;2022-08-19T02:53:21;4.10;;;2.53;;
26860;SDS011;37676;46.956;7.430;2022-08-19T02:55:48;3.92;;;2.63;;
26860;SDS011;37676;46.956;7.430;2022-08-19T02:58:14;3.90;;;2.15;;
26860;SDS011;37676;46.956;7.430;2022-08-19T03:00:44;3.63;;;2.33;;
26860;SDS011;37676;46.956;7.430;2022-08-19T03:03:11;5.57;;;3.78;;
26860;SDS011;37676;46.956;7.430;2022-08-19T03:05:36;4.10;;;2.80;;
26860;SDS011;37676;46.956;7.430;2022-08-19T03:08:02;4.78;;;3.40;;
26860;SDS011;37676;46.956;7.430;2022-08-19T03:10:29;6.15;;;4.38;;
26860;SDS011;37676;46.956;7.430;2022-08-19T03:12:54;4.88;;;3.35;;
26860;SDS011;37676;46.956;7.430;2022-08-19T03:15:19;4.37;;;2.80;;
26860;SDS011;37676;46.956;7.430;2022-08-19T03:17:45;3.53;;;2.20;;
26860;SDS011;37676;46.956;7.430;2022-08-19T03:20:10;3.30;;;1.80;;
26860;SDS011;37676;46.956;7.430;2022-08-19T03:22:36;3.63;;;2.30;;
26860;SDS011;37676;46.956;7.430;2022-08-19T03:25:01;4.38;;;2.55;;
26860;SDS011;37676;46.956;7.430;2022-08-19T03:27:27;3.83;;;2.42;;
26860;SDS011;37676;46.956;7.430;2022-08-19T03:29:52;4.07;;;2.60;;
26860;SDS011;37676;46.956;7.430;2022-08-19T03:32:17;5.15;;;3.00;;
26860;SDS011;37676;46.956;7.430;2022-08-19T03:34:42;4.93;;;3.33;;
26860;SDS011;37676;46.956;7.430;2022-08-19T03:37:09;4.87;;;3.70;;
26860;SDS011;37676;46.956;7.430;2022-08-19T03:39:37;5.25;;;3.83;;
26860;SDS011;37676;46.956;7.430;2022-08-19T03:42:05;5.32;;;3.58;;
26860;SDS011;37676;46.956;7.430;2022-08-19T03:44:30;4.60;;;3.10;;
26860;SDS011;37676;46.956;7.430;2022-08-19T03:46:58;6.03;;;3.22;;
26860;SDS011;37676;46.956;7.430;2022-08-19T03:49:26;5.80;;;3.65;;
26860;SDS011;37676;46.956;7.430;2022-08-19T03:51:54;4.88;;;3.15;;
26860;SDS011;37676;46.956;7.430;2022-08-19T03:54:22;5.82;;;4.10;;
26860;SDS011;37676;46.956;7.430;2022-08-19T03:56:49;4.70;;;3.00;;
26860;SDS011;37676;46.956;7.430;2022-08-19T03:59:19;4.32;;;3.05;;
26860;SDS011;37676;46.956;7.430;2022-08-19T04:01:54;3.63;;;1.73;;
26860;SDS011;37676;46.956;7.430;2022-08-19T04:04:20;5.13;;;3.20;;
26860;SDS011;37676;46.956;7.430;2022-08-19T04:06:47;4.47;;;2.95;;
26860;SDS011;37676;46.956;7.430;2022-08-19T04:09:13;5.78;;;4.15;;
26860;SDS011;37676;46.956;7.430;2022-08-19T04:11:39;4.32;;;2.85;;
26860;SDS011;37676;46.956;7.430;2022-08-19T04:14:08;7.50;;;5.55;;
26860;SDS011;37676;46.956;7.430;2022-08-19T04:16:35;5.30;;;3.90;;
26860;SDS011;37676;46.956;7.430;2022-08-19T04:19:01;4.85;;;3.50;;
26860;SDS011;37676;46.956;7.430;2022-08-19T04:21:28;5.68;;;3.85;;
26860;SDS011;37676;46.956;7.430;2022-08-19T04:23:54;5.85;;;3.90;;
26860;SDS011;37676;46.956;7.430;2022-08-19T04:26:22;5.53;;;4.20;;
26860;SDS011;37676;46.956;7.430;2022-08-19T04:28:49;4.43;;;2.90;;
26860;SDS011;37676;46.956;7.430;2022-08-19T04:31:17;4.55;;;2.97;;
26860;SDS011;37676;46.956;7.430;2022-08-19T04:33:51;3.58;;;2.38;;
26860;SDS011;37676;46.956;7.430;2022-08-19T04:36:28;2.90;;;1.75;;
26860;SDS011;37676;46.956;7.430;2022-08-19T04:38:56;6.20;;;4.25;;
26860;SDS011;37676;46.956;7.430;2022-08-19T04:41:23;5.35;;;3.65;;
26860;SDS011;37676;46.956;7.430;2022-08-19T04:44:07;3.70;;;1.80;;
26860;SDS011;37676;46.956;7.430;2022-08-19T04:46:33;5.22;;;3.63;;
26860;SDS011;37676;46.956;7.430;2022-08-19T04:48:59;3.58;;;2.20;;
26860;SDS011;37676;46.956;7.430;2022-08-19T04:51:26;3.35;;;1.83;;
26860;SDS011;37676;46.956;7.430;2022-08-19T04:53:52;3.70;;;1.92;;
26860;SDS011;37676;46.956;7.430;2022-08-19T04:56:17;4.05;;;2.70;;
26860;SDS011;37676;46.956;7.430;2022-08-19T04:58:45;4.45;;;2.08;;
26860;SDS011;37676;46.956;7.430;2022-08-19T05:01:12;4.03;;;2.58;;
26860;SDS011;37676;46.956;7.430;2022-08-19T05:03:39;3.72;;;2.28;;
26860;SDS011;37676;46.956;7.430;2022-08-19T05:06:08;3.55;;;2.20;;
26860;SDS011;37676;46.956;7.430;2022-08-19T05:08:36;3.92;;;2.53;;
26860;SDS011;37676;46.956;7.430;2022-08-19T05:11:11;4.05;;;2.20;;
26860;SDS011;37676;46.956;7.430;2022-08-19T05:13:42;3.47;;;2.25;;
26860;SDS011;37676;46.956;7.430;2022-08-19T05:16:10;3.67;;;2.13;;
26860;SDS011;37676;46.956;7.430;2022-08-19T05:18:37;3.80;;;2.60;;
26860;SDS011;37676;46.956;7.430;2022-08-19T05:21:21;3.75;;;2.20;;
26860;SDS011;37676;46.956;7.430;2022-08-19T05:24:05;3.63;;;2.10;;
26860;SDS011;37676;46.956;7.430;2022-08-19T05:26:37;3.35;;;1.83;;
26860;SDS011;37676;46.956;7.430;2022-08-19T05:29:04;2.85;;;1.63;;
26860;SDS011;37676;46.956;7.430;2022-08-19T05:31:31;3.63;;;1.90;;
26860;SDS011;37676;46.956;7.430;2022-08-19T05:33:56;3.45;;;2.00;;
26860;SDS011;37676;46.956;7.430;2022-08-19T05:36:23;3.17;;;1.95;;
26860;SDS011;37676;46.956;7.430;2022-08-19T05:38:53;3.25;;;1.80;;
26860;SDS011;37676;46.956;7.430;2022-08-19T05:41:19;3.92;;;2.28;;
26860;SDS011;37676;46.956;7.430;2022-08-19T05:43:48;3.38;;;1.85;;
26860;SDS011;37676;46.956;7.430;2022-08-19T05:46:16;3.30;;;1.90;;
26860;SDS011;37676;46.956;7.430;2022-08-19T05:48:43;4.07;;;2.67;;
26860;SDS011;37676;46.956;7.430;2022-08-19T05:51:09;3.47;;;2.00;;
26860;SDS011;37676;46.956;7.430;2022-08-19T05:53:34;2.88;;;1.55;;
26860;SDS011;37676;46.956;7.430;2022-08-19T05:56:07;2.25;;;1.05;;
26860;SDS011;37676;46.956;7.430;2022-08-19T05:58:34;2.45;;;1.42;;
26860;SDS011;37676;46.956;7.430;2022-08-19T06:01:00;2.40;;;1.30;;
26860;SDS011;37676;46.956;7.430;2022-08-19T06:03:32;2.50;;;1.35;;
26860;SDS011;37676;46.956;7.430;2022-08-19T06:05:58;2.90;;;1.20;;
26860;SDS011;37676;46.956;7.430;2022-08-19T06:08:25;3.28;;;1.20;;
26860;SDS011;37676;46.956;7.430;2022-08-19T06:10:51;2.55;;;1.23;;
26860;SDS011;37676;46.956;7.430;2022-08-19T06:13:17;1.83;;;1.00;;
26860;SDS011;37676;46.956;7.430;2022-08-19T06:15:44;2.30;;;1.10;;
26860;SDS011;37676;46.956;7.430;2022-08-19T06:18:11;3.20;;;1.40;;
26860;SDS011;37676;46.956;7.430;2022-08-19T06:20:37;3.55;;;1.90;;
26860;SDS011;37676;46.956;7.430;2022-08-19T06:23:03;2.72;;;1.38;;
26860;SDS011;37676;46.956;7.430;2022-08-19T06:25:28;2.83;;;1.77;;
26860;SDS011;37676;46.956;7.430;2022-08-19T06:27:53;4.03;;;2.20;;
26860;SDS011;37676;46.956;7.430;2022-08-19T06:30:19;3.78;;;2.05;;
26860;SDS011;37676;46.956;7.430;2022-08-19T06:32:44;3.08;;;1.70;;
26860;SDS011;37676;46.956;7.430;2022-08-19T06:35:09;3.05;;;1.80;;
26860;SDS011;37676;46.956;7.430;2022-08-19T06:37:36;3.85;;;1.98;;
26860;SDS011;37676;46.956;7.430;2022-08-19T06:40:02;3.17;;;1.83;;
26860;SDS011;37676;46.956;7.430;2022-08-19T06:42:28;3.28;;;1.88;;
26860;SDS011;37676;46.956;7.430;2022-08-19T06:44:54;2.75;;;1.70;;
26860;SDS011;37676;46.956;7.430;2022-08-19T06:47:20;3.92;;;2.30;;
26860;SDS011;37676;46.956;7.430;2022-08-19T06:49:46;3.60;;;2.22;;
26860;SDS011;37676;46.956;7.430;2022-08-19T06:52:12;4.10;;;2.40;;
26860;SDS011;37676;46.956;7.430;2022-08-19T06:54:38;3.38;;;1.90;;
26860;SDS011;37676;46.956;7.430;2022-08-19T06:57:04;2.88;;;1.65;;
26860;SDS011;37676;46.956;7.430;2022-08-19T06:59:32;2.83;;;1.60;;
26860;SDS011;37676;46.956;7.430;2022-08-19T07:01:58;3.47;;;1.77;;
26860;SDS011;37676;46.956;7.430;2022-08-19T07:04:26;3.78;;;2.58;;
26860;SDS011;37676;46.956;7.430;2022-08-19T07:07:17;3.10;;;1.73;;
26860;SDS011;37676;46.956;7.430;2022-08-19T07:09:42;3.40;;;2.00;;
26860;SDS011;37676;46.956;7.430;2022-08-19T07:12:10;4.40;;;2.80;;
26860;SDS011;37676;46.956;7.430;2022-08-19T07:14:38;5.47;;;3.17;;
26860;SDS011;37676;46.956;7.430;2022-08-19T07:17:05;3.90;;;2.40;;
26860;SDS011;37676;46.956;7.430;2022-08-19T07:19:33;3.13;;;1.75;;
26860;SDS011;37676;46.956;7.430;2022-08-19T07:22:00;4.47;;;2.15;;
26860;SDS011;37676;46.956;7.430;2022-08-19T07:24:27;3.33;;;1.75;;
26860;SDS011;37676;46.956;7.430;2022-08-19T07:26:54;2.40;;;1.38;;
26860;SDS011;37676;46.956;7.430;2022-08-19T07:29:25;2.50;;;1.17;;
26860;SDS011;37676;46.956;7.430;2022-08-19T07:31:52;3.63;;;1.80;;
26860;SDS011;37676;46.956;7.430;2022-08-19T07:34:21;4.07;;;2.35;;
26860;SDS011;37676;46.956;7.430;2022-08-19T07:36:48;4.07;;;2.00;;
26860;SDS011;37676;46.956;7.430;2022-08-19T07:39:15;3.72;;;1.98;;
26860;SDS011;37676;46.956;7.430;2022-08-19T07:41:43;3.67;;;1.98;;
26860;SDS011;37676;46.956;7.430;2022-08-19T07:44:10;4.70;;;2.70;;
26860;SDS011;37676;46.956;7.430;2022-08-19T07:46:38;6.15;;;4.05;;
26860;SDS011;37676;46.956;7.430;2022-08-19T07:49:06;4.63;;;2.80;;
26860;SDS011;37676;46.956;7.430;2022-08-19T07:51:32;3.97;;;2.35;;
26860;SDS011;37676;46.956;7.430;2022-08-19T07:53:57;3.22;;;1.90;;
26860;SDS011;37676;46.956;7.430;2022-08-19T07:56:23;3.63;;;2.03;;
26860;SDS011;37676;46.956;7.430;2022-08-19T07:58:49;3.17;;;1.75;;
26860;SDS011;37676;46.956;7.430;2022-08-19T08:01:19;28.90;;;19.00;;
26860;SDS011;37676;46.956;7.430;2022-08-19T08:03:48;33.38;;;20.27;;
26860;SDS011;37676;46.956;7.430;2022-08-19T08:06:33;13.32;;;9.45;;
26860;SDS011;37676;46.956;7.430;2022-08-19T08:09:19;6.63;;;4.63;;
26860;SDS011;37676;46.956;7.430;2022-08-19T08:11:52;4.70;;;3.15;;
26860;SDS011;37676;46.956;7.430;2022-08-19T08:14:21;4.25;;;2.35;;
26860;SDS011;37676;46.956;7.430;2022-08-19T08:16:48;2.47;;;1.45;;
26860;SDS011;37676;46.956;7.430;2022-08-19T08:19:15;3.10;;;1.60;;
26860;SDS011;37676;46.956;7.430;2022-08-19T08:21:42;3.40;;;1.88;;
26860;SDS011;37676;46.956;7.430;2022-08-19T08:24:08;3.92;;;2.13;;
26860;SDS011;37676;46.956;7.430;2022-08-19T08:26:34;3.47;;;2.05;;
26860;SDS011;37676;46.956;7.430;2022-08-19T08:28:59;2.83;;;1.55;;
26860;SDS011;37676;46.956;7.430;2022-08-19T08:31:24;3.55;;;2.22;;
26860;SDS011;37676;46.956;7.430;2022-08-19T08:33:50;3.20;;;1.88;;
26860;SDS011;37676;46.956;7.430;2022-08-19T08:36:15;2.25;;;1.20;;
26860;SDS011;37676;46.956;7.430;2022-08-19T08:38:41;2.88;;;1.70;;
26860;SDS011;37676;46.956;7.430;2022-08-19T08:41:18;3.25;;;2.00;;
26860;SDS011;37676;46.956;7.430;2022-08-19T08:43:53;3.40;;;1.75;;
26860;SDS011;37676;46.956;7.430;2022-08-19T08:51:51;2.78;;;1.65;;
26860;SDS011;37676;46.956;7.430;2022-08-19T08:54:23;2.63;;;1.60;;
26860;SDS011;37676;46.956;7.430;2022-08-19T08:56:51;3.42;;;1.92;;
26860;SDS011;37676;46.956;7.430;2022-08-19T08:59:31;4.03;;;2.42;;
26860;SDS011;37676;46.956;7.430;2022-08-19T09:02:01;2.83;;;1.77;;
26860;SDS011;37676;46.956;7.430;2022-08-19T09:04:27;3.13;;;1.75;;
26860;SDS011;37676;46.956;7.430;2022-08-19T09:09:48;3.35;;;1.85;;
26860;SDS011;37676;46.956;7.430;2022-08-19T09:17:22;2.10;;;1.13;;
26860;SDS011;37676;46.956;7.430;2022-08-19T09:19:54;2.10;;;1.20;;
26860;SDS011;37676;46.956;7.430;2022-08-19T09:22:22;1.58;;;0.80;;
26860;SDS011;37676;46.956;7.430;2022-08-19T09:24:51;1.60;;;0.90;;
26860;SDS011;37676;46.956;7.430;2022-08-19T09:27:18;2.42;;;1.05;;
26860;SDS011;37676;46.956;7.430;2022-08-19T09:29:45;2.85;;;1.70;;
26860;SDS011;37676;46.956;7.430;2022-08-19T09:32:14;3.28;;;1.50;;
26860;SDS011;37676;46.956;7.430;2022-08-19T09:34:39;2.03;;;1.40;;
26860;SDS011;37676;46.956;7.430;2022-08-19T09:37:05;2.53;;;1.33;;
26860;SDS011;37676;46.956;7.430;2022-08-19T09:39:30;3.00;;;1.45;;
26860;SDS011;37676;46.956;7.430;2022-08-19T09:41:55;2.58;;;1.30;;
26860;SDS011;37676;46.956;7.430;2022-08-19T09:44:21;1.95;;;1.00;;
26860;SDS011;37676;46.956;7.430;2022-08-19T09:46:46;2.08;;;1.00;;
26860;SDS011;37676;46.956;7.430;2022-08-19T09:49:12;1.63;;;0.80;;
26860;SDS011;37676;46.956;7.430;2022-08-19T09:51:37;2.15;;;1.00;;
26860;SDS011;37676;46.956;7.430;2022-08-19T09:54:03;1.17;;;0.60;;
26860;SDS011;37676;46.956;7.430;2022-08-19T09:56:29;1.50;;;0.90;;
26860;SDS011;37676;46.956;7.430;2022-08-19T09:58:59;1.95;;;0.82;;
26860;SDS011;37676;46.956;7.430;2022-08-19T10:01:27;1.27;;;0.73;;
26860;SDS011;37676;46.956;7.430;2022-08-19T10:03:55;1.60;;;0.80;;
26860;SDS011;37676;46.956;7.430;2022-08-19T10:06:22;2.10;;;1.02;;
26860;SDS011;37676;46.956;7.430;2022-08-19T10:08:55;2.38;;;1.30;;
26860;SDS011;37676;46.956;7.430;2022-08-19T10:11:21;3.42;;;1.10;;
26860;SDS011;37676;46.956;7.430;2022-08-19T10:13:47;1.88;;;1.00;;
26860;SDS011;37676;46.956;7.430;2022-08-19T10:16:14;2.45;;;1.27;;
26860;SDS011;37676;46.956;7.430;2022-08-19T10:18:42;1.90;;;0.93;;
26860;SDS011;37676;46.956;7.430;2022-08-19T10:21:16;2.15;;;0.88;;
26860;SDS011;37676;46.956;7.430;2022-08-19T10:23:44;2.10;;;1.20;;
26860;SDS011;37676;46.956;7.430;2022-08-19T10:26:12;1.85;;;0.80;;
26860;SDS011;37676;46.956;7.430;2022-08-19T10:28:39;2.42;;;1.38;;
26860;SDS011;37676;46.956;7.430;2022-08-19T10:31:06;2.40;;;1.23;;
26860;SDS011;37676;46.956;7.430;2022-08-19T10:33:34;2.50;;;1.25;;
26860;SDS011;37676;46.956;7.430;2022-08-19T10:36:01;2.08;;;1.20;;
26860;SDS011;37676;46.956;7.430;2022-08-19T10:38:29;2.90;;;1.40;;
26860;SDS011;37676;46.956;7.430;2022-08-19T10:40:56;4.22;;;2.63;;
26860;SDS011;37676;46.956;7.430;2022-08-19T10:43:21;3.55;;;2.08;;
26860;SDS011;37676;46.956;7.430;2022-08-19T10:45:53;2.75;;;1.63;;
26860;SDS011;37676;46.956;7.430;2022-08-19T10:48:24;2.58;;;1.23;;
26860;SDS011;37676;46.956;7.430;2022-08-19T10:50:49;2.60;;;1.42;;
26860;SDS011;37676;46.956;7.430;2022-08-19T10:53:33;3.75;;;1.98;;
26860;SDS011;37676;46.956;7.430;2022-08-19T10:55:58;2.80;;;1.48;;
26860;SDS011;37676;46.956;7.430;2022-08-19T10:58:44;2.67;;;1.33;;
26860;SDS011;37676;46.956;7.430;2022-08-19T11:01:09;2.60;;;1.38;;
26860;SDS011;37676;46.956;7.430;2022-08-19T11:03:35;2.28;;;1.10;;
26860;SDS011;37676;46.956;7.430;2022-08-19T11:06:01;2.50;;;1.30;;
26860;SDS011;37676;46.956;7.430;2022-08-19T11:08:28;2.15;;;1.40;;
26860;SDS011;37676;46.956;7.430;2022-08-19T11:10:57;3.40;;;1.60;;
26860;SDS011;37676;46.956;7.430;2022-08-19T11:13:26;2.65;;;1.33;;
26860;SDS011;37676;46.956;7.430;2022-08-19T11:15:57;2.67;;;1.38;;
26860;SDS011;37676;46.956;7.430;2022-08-19T11:18:26;2.03;;;1.15;;
26860;SDS011;37676;46.956;7.430;2022-08-19T11:20:52;2.55;;;1.55;;
26860;SDS011;37676;46.956;7.430;2022-08-19T11:23:17;2.30;;;1.20;;
26860;SDS011;37676;46.956;7.430;2022-08-19T11:25:43;3.42;;;1.45;;
26860;SDS011;37676;46.956;7.430;2022-08-19T11:28:10;2.30;;;1.23;;
26860;SDS011;37676;46.956;7.430;2022-08-19T11:30:37;2.30;;;1.30;;
26860;SDS011;37676;46.956;7.430;2022-08-19T11:33:03;2.30;;;1.27;;
26860;SDS011;37676;46.956;7.430;2022-08-19T11:35:29;2.30;;;1.20;;
26860;SDS011;37676;46.956;7.430;2022-08-19T11:37:54;2.65;;;1.33;;
26860;SDS011;37676;46.956;7.430;2022-08-19T11:40:21;2.00;;;1.17;;
26860;SDS011;37676;46.956;7.430;2022-08-19T11:42:46;2.20;;;1.20;;
26860;SDS011;37676;46.956;7.430;2022-08-19T11:45:21;2.80;;;1.45;;
26860;SDS011;37676;46.956;7.430;2022-08-19T11:47:47;2.33;;;1.10;;
26860;SDS011;37676;46.956;7.430;2022-08-19T11:50:13;2.33;;;1.10;;
26860;SDS011;37676;46.956;7.430;2022-08-19T11:52:39;2.88;;;1.10;;
26860;SDS011;37676;46.956;7.430;2022-08-19T11:55:04;2.20;;;1.08;;
26860;SDS011;37676;46.956;7.430;2022-08-19T11:57:31;1.80;;;1.00;;
26860;SDS011;37676;46.956;7.430;2022-08-19T11:59:56;1.98;;;1.17;;
26860;SDS011;37676;46.956;7.430;2022-08-19T12:02:21;2.05;;;1.00;;
26860;SDS011;37676;46.956;7.430;2022-08-19T12:04:48;2.58;;;1.23;;
26860;SDS011;37676;46.956;7.430;2022-08-19T12:07:13;2.22;;;1.23;;
26860;SDS011;37676;46.956;7.430;2022-08-19T12:09:38;2.53;;;1.45;;
26860;SDS011;37676;46.956;7.430;2022-08-19T12:12:04;2.30;;;1.00;;
26860;SDS011;37676;46.956;7.430;2022-08-19T12:14:30;2.20;;;1.30;;
26860;SDS011;37676;46.956;7.430;2022-08-19T12:16:56;2.55;;;1.13;;
26860;SDS011;37676;46.956;7.430;2022-08-19T12:19:22;1.90;;;1.10;;
26860;SDS011;37676;46.956;7.430;2022-08-19T12:21:49;1.77;;;0.95;;
26860;SDS011;37676;46.956;7.430;2022-08-19T12:24:15;1.67;;;1.05;;
26860;SDS011;37676;46.956;7.430;2022-08-19T12:26:45;2.50;;;1.10;;
26860;SDS011;37676;46.956;7.430;2022-08-19T12:29:10;2.22;;;1.00;;
26860;SDS011;37676;46.956;7.430;2022-08-19T12:31:36;2.97;;;1.42;;
26860;SDS011;37676;46.956;7.430;2022-08-19T12:34:01;2.25;;;1.30;;
26860;SDS011;37676;46.956;7.430;2022-08-19T12:36:27;2.28;;;1.13;;
26860;SDS011;37676;46.956;7.430;2022-08-19T12:38:53;1.85;;;0.95;;
26860;SDS011;37676;46.956;7.430;2022-08-19T12:41:18;1.88;;;0.95;;
26860;SDS011;37676;46.956;7.430;2022-08-19T12:43:47;1.77;;;0.98;;
26860;SDS011;37676;46.956;7.430;2022-08-19T12:46:14;2.15;;;0.95;;
26860;SDS011;37676;46.956;7.430;2022-08-19T12:48:39;3.05;;;1.50;;
26860;SDS011;37676;46.956;7.430;2022-08-19T12:51:08;2.25;;;1.20;;
26860;SDS011;37676;46.956;7.430;2022-08-19T12:53:35;3.05;;;1.83;;
26860;SDS011;37676;46.956;7.430;2022-08-19T12:56:02;2.90;;;1.60;;
26860;SDS011;37676;46.956;7.430;2022-08-19T12:58:28;2.05;;;1.10;;
26860;SDS011;37676;46.956;7.430;2022-08-19T13:00:54;2.30;;;1.40;;
26860;SDS011;37676;46.956;7.430;2022-08-19T13:03:19;2.50;;;1.40;;
26860;SDS011;37676;46.956;7.430;2022-08-19T13:05:45;2.42;;;1.35;;
26860;SDS011;37676;46.956;7.430;2022-08-19T13:08:10;1.92;;;1.08;;
26860;SDS011;37676;46.956;7.430;2022-08-19T13:10:36;2.40;;;1.20;;
26860;SDS011;37676;46.956;7.430;2022-08-19T13:13:04;2.28;;;1.20;;
26860;SDS011;37676;46.956;7.430;2022-08-19T13:15:33;2.72;;;1.55;;
26860;SDS011;37676;46.956;7.430;2022-08-19T13:18:05;2.28;;;1.08;;
26860;SDS011;37676;46.956;7.430;2022-08-19T13:20:32;2.20;;;1.15;;
26860;SDS011;37676;46.956;7.430;2022-08-19T13:22:57;2.05;;;1.00;;
26860;SDS011;37676;46.956;7.430;2022-08-19T13:25:22;2.38;;;1.38;;
26860;SDS011;37676;46.956;7.430;2022-08-19T13:27:49;2.13;;;1.08;;
26860;SDS011;37676;46.956;7.430;2022-08-19T13:30:16;2.47;;;1.30;;
26860;SDS011;37676;46.956;7.430;2022-08-19T13:33:00;2.50;;;1.30;;
26860;SDS011;37676;46.956;7.430;2022-08-19T13:35:48;2.88;;;1.20;;
26860;SDS011;37676;46.956;7.430;2022-08-19T13:38:18;3.33;;;1.45;;
26860;SDS011;37676;46.956;7.430;2022-08-19T13:40:45;1.65;;;0.95;;
26860;SDS011;37676;46.956;7.430;2022-08-19T13:43:11;1.65;;;0.93;;
26860;SDS011;37676;46.956;7.430;2022-08-19T13:45:36;3.35;;;1.42;;
26860;SDS011;37676;46.956;7.430;2022-08-19T13:48:03;2.05;;;1.08;;
26860;SDS011;37676;46.956;7.430;2022-08-19T13:50:34;1.88;;;0.80;;
26860;SDS011;37676;46.956;7.430;2022-08-19T13:53:09;2.47;;;1.25;;
26860;SDS011;37676;46.956;7.430;2022-08-19T13:55:42;1.90;;;1.00;;
26860;SDS011;37676;46.956;7.430;2022-08-19T13:58:09;2.00;;;1.00;;
26860;SDS011;37676;46.956;7.430;2022-08-19T14:00:37;1.75;;;0.90;;
26860;SDS011;37676;46.956;7.430;2022-08-19T14:03:04;2.53;;;1.33;;
26860;SDS011;37676;46.956;7.430;2022-08-19T14:05:30;1.83;;;0.82;;
26860;SDS011;37676;46.956;7.430;2022-08-19T14:07:57;1.67;;;1.00;;
26860;SDS011;37676;46.956;7.430;2022-08-19T14:10:23;1.90;;;0.90;;
26860;SDS011;37676;46.956;7.430;2022-08-19T14:12:52;1.80;;;0.90;;
26860;SDS011;37676;46.956;7.430;2022-08-19T14:15:18;2.03;;;1.10;;
26860;SDS011;37676;46.956;7.430;2022-08-19T14:17:44;1.90;;;1.08;;
26860;SDS011;37676;46.956;7.430;2022-08-19T14:20:11;3.30;;;1.60;;
26860;SDS011;37676;46.956;7.430;2022-08-19T14:22:41;2.33;;;1.13;;
26860;SDS011;37676;46.956;7.430;2022-08-19T14:25:07;2.45;;;1.20;;
26860;SDS011;37676;46.956;7.430;2022-08-19T14:27:36;2.30;;;1.30;;
26860;SDS011;37676;46.956;7.430;2022-08-19T14:30:04;3.00;;;1.52;;
26860;SDS011;37676;46.956;7.430;2022-08-19T14:32:31;2.38;;;1.25;;
26860;SDS011;37676;46.956;7.430;2022-08-19T14:34:57;2.47;;;1.23;;
26860;SDS011;37676;46.956;7.430;2022-08-19T14:37:22;2.00;;;0.93;;
26860;SDS011;37676;46.956;7.430;2022-08-19T14:39:48;1.90;;;0.95;;
26860;SDS011;37676;46.956;7.430;2022-08-19T14:42:13;2.42;;;1.23;;
26860;SDS011;37676;46.956;7.430;2022-08-19T14:44:39;2.40;;;1.30;;
26860;SDS011;37676;46.956;7.430;2022-08-19T14:47:05;1.85;;;1.02;;
26860;SDS011;37676;46.956;7.430;2022-08-19T14:49:32;2.35;;;1.05;;
26860;SDS011;37676;46.956;7.430;2022-08-19T14:51:58;2.60;;;1.17;;
26860;SDS011;37676;46.956;7.430;2022-08-19T14:54:23;1.80;;;0.80;;
26860;SDS011;37676;46.956;7.430;2022-08-19T14:56:49;1.88;;;1.05;;
26860;SDS011;37676;46.956;7.430;2022-08-19T14:59:15;1.80;;;0.82;;
26860;SDS011;37676;46.956;7.430;2022-08-19T15:01:41;1.85;;;0.95;;
26860;SDS011;37676;46.956;7.430;2022-08-19T15:04:06;2.00;;;1.27;;